createdAt,value
2022-08-26T00:00:54.859Z,95036.50
2022-08-26T00:01:54.902Z,95035.27
2022-08-26T00:02:54.826Z,95035.59
2022-08-26T00:03:54.926Z,95035.88
2022-08-26T00:04:54.815Z,95033.45
2022-08-26T00:05:54.808Z,95034.22
2022-08-26T00:06:54.811Z,95031.37
2022-08-26T00:07:54.789Z,95030.81
2022-08-26T00:08:54.793Z,95038.72
2022-08-26T00:09:55.299Z,95035.94
2022-08-26T00:10:54.761Z,95027.30
2022-08-26T00:11:54.773Z,95028.82
2022-08-26T00:12:54.742Z,95028.48
2022-08-26T00:13:54.757Z,95031.91
2022-08-26T00:14:54.743Z,95025.03
2022-08-26T00:15:54.748Z,95029.66
2022-08-26T00:16:55.193Z,95029.52
2022-08-26T00:17:54.717Z,95030.55
2022-08-26T00:18:54.693Z,95030.62
2022-08-26T00:19:54.693Z,95028.11
2022-08-26T00:20:54.687Z,95032.56
2022-08-26T00:21:54.685Z,95026.05
2022-08-26T00:22:54.677Z,95028.68
2022-08-26T00:23:54.655Z,95026.42
2022-08-26T00:24:54.651Z,95029.78
2022-08-26T00:25:54.657Z,95031.67
2022-08-26T00:26:54.640Z,95035.48
2022-08-26T00:27:54.636Z,95032.76
2022-08-26T00:28:54.608Z,95030.08
2022-08-26T00:29:54.608Z,95028.23
2022-08-26T00:30:54.602Z,95032.02
2022-08-26T00:31:54.642Z,95035.54
2022-08-26T00:32:54.583Z,95034.62
2022-08-26T00:33:54.611Z,95037.03
2022-08-26T00:34:54.560Z,95032.86
2022-08-26T00:35:54.573Z,95031.58
2022-08-26T00:36:54.554Z,95029.77
2022-08-26T00:37:54.541Z,95027.14
2022-08-26T00:38:54.535Z,95033.12
2022-08-26T00:39:54.565Z,95028.61
2022-08-26T00:40:54.516Z,95033.09
2022-08-26T00:41:54.503Z,95032.84
2022-08-26T00:42:54.497Z,95031.56
2022-08-26T00:43:54.485Z,95034.83
2022-08-26T00:44:54.474Z,95031.64
2022-08-26T00:45:54.575Z,95034.46
2022-08-26T00:46:54.469Z,95033.75
2022-08-26T00:47:54.460Z,95037.38
2022-08-26T00:48:54.450Z,95037.65
2022-08-26T00:49:54.450Z,95032.16
2022-08-26T00:50:54.423Z,95037.48
2022-08-26T00:51:54.541Z,95037.16
2022-08-26T00:52:54.411Z,95038.70
2022-08-26T00:53:54.398Z,95035.81
2022-08-26T00:54:54.401Z,95032.98
2022-08-26T00:55:54.380Z,95033.95
2022-08-26T00:56:54.369Z,95037.55
2022-08-26T00:57:54.379Z,95034.34
2022-08-26T00:58:54.365Z,95036.30
2022-08-26T00:59:54.367Z,95035.44
2022-08-26T01:00:54.391Z,95031.63
2022-08-26T01:01:54.377Z,95034.73
2022-08-26T01:02:54.336Z,95034.38
2022-08-26T01:03:54.345Z,95032.12
2022-08-26T01:04:56.156Z,95032.08
2022-08-26T01:05:54.314Z,95031.37
2022-08-26T01:06:54.284Z,95033.06
2022-08-26T01:07:54.296Z,95032.34
2022-08-26T01:08:54.265Z,95038.68
2022-08-26T01:09:54.288Z,95035.39
2022-08-26T01:10:54.928Z,95036.91
2022-08-26T01:11:54.248Z,95034.53
2022-08-26T01:12:54.250Z,95034.78
2022-08-26T01:13:54.239Z,95035.02
2022-08-26T01:14:54.216Z,95032.69
2022-08-26T01:15:54.238Z,95034.70
2022-08-26T01:16:54.198Z,95037.32
2022-08-26T01:17:54.211Z,95035.14
2022-08-26T01:18:54.191Z,95034.91
2022-08-26T01:19:54.180Z,95032.41
2022-08-26T01:20:57.526Z,95035.87
2022-08-26T01:21:54.194Z,95035.52
2022-08-26T01:22:54.150Z,95034.66
2022-08-26T01:23:57.550Z,95036.86
2022-08-26T01:24:54.144Z,95035.23
2022-08-26T01:25:54.133Z,95034.84
2022-08-26T01:26:54.125Z,95039.39
2022-08-26T01:27:54.146Z,95032.86
2022-08-26T01:28:54.105Z,95030.20
2022-08-26T01:29:54.106Z,95034.84
2022-08-26T01:30:54.096Z,95030.54
2022-08-26T01:31:54.117Z,95034.91
2022-08-26T01:32:54.077Z,95030.34
2022-08-26T01:33:54.208Z,95032.26
2022-08-26T01:34:54.045Z,95032.43
2022-08-26T01:35:54.044Z,95034.12
2022-08-26T01:36:54.039Z,95036.04
2022-08-26T01:37:54.040Z,95036.68
2022-08-26T01:38:54.055Z,95035.06
2022-08-26T01:39:54.066Z,95034.38
2022-08-26T01:40:54.519Z,95033.95
2022-08-26T01:41:53.988Z,95039.80
2022-08-26T01:42:54.001Z,95036.27
2022-08-26T01:43:53.992Z,95034.62
2022-08-26T01:44:54.031Z,95033.80
2022-08-26T01:45:54.062Z,95035.84
2022-08-26T01:46:53.963Z,95035.33
2022-08-26T01:47:57.132Z,95039.45
2022-08-26T01:48:54.526Z,95033.27
2022-08-26T01:49:53.933Z,95031.55
2022-08-26T01:50:53.912Z,95039.89
2022-08-26T01:51:53.924Z,95035.62
2022-08-26T01:52:54.504Z,95039.94
2022-08-26T01:53:53.882Z,95037.06
2022-08-26T01:54:53.886Z,95035.22
2022-08-26T01:55:53.867Z,95042.34
2022-08-26T01:56:53.863Z,95040.89
2022-08-26T01:57:53.879Z,95037.85
2022-08-26T01:58:53.844Z,95042.05
2022-08-26T01:59:53.849Z,95040.62
2022-08-26T02:00:53.877Z,95038.67
2022-08-26T02:01:53.824Z,95042.11
2022-08-26T02:02:53.816Z,95043.09
2022-08-26T02:03:53.832Z,95043.50
2022-08-26T02:04:53.820Z,95041.59
2022-08-26T02:05:53.778Z,95043.89
2022-08-26T02:06:53.778Z,95043.15
2022-08-26T02:07:53.772Z,95043.64
2022-08-26T02:08:53.773Z,95043.07
2022-08-26T02:09:53.768Z,95042.53
2022-08-26T02:10:55.020Z,95044.53
2022-08-26T02:11:53.744Z,95039.73
2022-08-26T02:12:53.730Z,95040.12
2022-08-26T02:13:53.729Z,95041.33
2022-08-26T02:14:53.786Z,95045.11
2022-08-26T02:15:54.047Z,95042.62
2022-08-26T02:16:53.692Z,95040.74
2022-08-26T02:17:53.682Z,95037.72
2022-08-26T02:18:53.683Z,95046.34
2022-08-26T02:19:53.662Z,95042.53
2022-08-26T02:20:53.675Z,95043.16
2022-08-26T02:21:53.663Z,95043.14
2022-08-26T02:22:53.659Z,95043.51
2022-08-26T02:23:55.971Z,95044.19
2022-08-26T02:24:53.625Z,95045.73
2022-08-26T02:25:53.615Z,95046.33
2022-08-26T02:26:53.619Z,95041.73
2022-08-26T02:27:53.616Z,95044.83
2022-08-26T02:28:53.587Z,95044.62
2022-08-26T02:29:53.590Z,95042.61
2022-08-26T02:30:55.528Z,95044.25
2022-08-26T02:31:53.600Z,95044.08
2022-08-26T02:32:53.561Z,95050.44
2022-08-26T02:33:53.745Z,95048.83
2022-08-26T02:34:53.557Z,95051.23
2022-08-26T02:35:53.543Z,95046.75
2022-08-26T02:36:53.522Z,95049.17
2022-08-26T02:37:53.524Z,95049.38
2022-08-26T02:38:53.522Z,95047.00
2022-08-26T02:39:53.549Z,95046.48
2022-08-26T02:40:53.506Z,95048.13
2022-08-26T02:41:53.476Z,95046.86
2022-08-26T02:42:55.965Z,95047.34
2022-08-26T02:43:53.466Z,95050.20
2022-08-26T02:44:53.466Z,95046.03
2022-08-26T02:45:53.465Z,95047.23
2022-08-26T02:46:54.167Z,95046.17
2022-08-26T02:47:53.425Z,95045.07
2022-08-26T02:48:53.437Z,95044.17
2022-08-26T02:49:53.420Z,95051.87
2022-08-26T02:50:53.419Z,95046.83
2022-08-26T02:51:53.398Z,95049.58
2022-08-26T02:52:53.386Z,95045.62
2022-08-26T02:53:53.390Z,95044.80
2022-08-26T02:54:53.382Z,95046.32
2022-08-26T02:55:53.373Z,95049.38
2022-08-26T02:56:53.361Z,95044.69
2022-08-26T02:57:53.346Z,95040.81
2022-08-26T02:58:53.398Z,95043.45
2022-08-26T02:59:53.333Z,95046.03
2022-08-26T03:00:53.806Z,95046.30
2022-08-26T03:01:56.119Z,95045.17
2022-08-26T03:02:53.304Z,95045.17
2022-08-26T03:03:53.291Z,95045.45
2022-08-26T03:04:57.458Z,95043.91
2022-08-26T03:05:53.261Z,95041.05
2022-08-26T03:06:53.275Z,95041.89
2022-08-26T03:07:53.266Z,95040.90
2022-08-26T03:08:53.257Z,95041.66
2022-08-26T03:09:53.246Z,95042.56
2022-08-26T03:10:53.225Z,95037.06
2022-08-26T03:11:53.214Z,95041.97
2022-08-26T03:12:53.224Z,95040.91
2022-08-26T03:13:53.209Z,95037.52
2022-08-26T03:14:53.186Z,95044.66
2022-08-26T03:15:53.302Z,95045.66
2022-08-26T03:16:53.180Z,95044.45
2022-08-26T03:17:53.156Z,95039.66
2022-08-26T03:18:53.170Z,95040.06
2022-08-26T03:19:57.018Z,95040.52
2022-08-26T03:20:53.151Z,95037.94
2022-08-26T03:21:53.145Z,95041.03
2022-08-26T03:22:53.118Z,95040.85
2022-08-26T03:23:53.109Z,95041.27
2022-08-26T03:24:53.099Z,95032.62
2022-08-26T03:25:53.089Z,95042.23
2022-08-26T03:26:53.271Z,95042.23
2022-08-26T03:27:53.080Z,95040.27
2022-08-26T03:28:53.085Z,95041.00
2022-08-26T03:29:53.050Z,95042.66
2022-08-26T03:30:53.068Z,95034.70
2022-08-26T03:31:53.033Z,95041.47
2022-08-26T03:32:53.035Z,95035.27
2022-08-26T03:33:55.600Z,95035.67
2022-08-26T03:34:53.013Z,95040.85
2022-08-26T03:35:53.008Z,95038.14
2022-08-26T03:36:52.995Z,95042.67
2022-08-26T03:37:53.000Z,95037.02
2022-08-26T03:38:52.976Z,95043.55
2022-08-26T03:39:53.135Z,95040.77
2022-08-26T03:40:52.969Z,95043.48
2022-08-26T03:41:52.946Z,95038.96
2022-08-26T03:42:52.947Z,95042.25
2022-08-26T03:43:52.941Z,95040.58
2022-08-26T03:44:52.927Z,95041.19
2022-08-26T03:45:52.937Z,95039.34
2022-08-26T03:46:52.943Z,95041.68
2022-08-26T03:47:53.053Z,95035.38
2022-08-26T03:48:52.903Z,95038.63
2022-08-26T03:49:52.879Z,95035.57
2022-08-26T03:50:52.870Z,95032.48
2022-08-26T03:51:52.894Z,95033.18
2022-08-26T03:52:52.873Z,95033.01
2022-08-26T03:53:52.841Z,95034.48
2022-08-26T03:54:52.854Z,95033.50
2022-08-26T03:55:52.822Z,95035.11
2022-08-26T03:56:52.841Z,95036.38
2022-08-26T03:57:52.843Z,95033.27
2022-08-26T03:58:52.823Z,95033.23
2022-08-26T03:59:52.807Z,95035.27
2022-08-26T04:00:55.641Z,95033.17
2022-08-26T04:01:52.819Z,95036.80
2022-08-26T04:02:53.288Z,95034.27
2022-08-26T04:03:52.764Z,95038.42
2022-08-26T04:04:52.768Z,95034.86
2022-08-26T04:05:52.749Z,95027.93
2022-08-26T04:06:52.735Z,95031.12
2022-08-26T04:07:52.716Z,95034.45
2022-08-26T04:08:52.716Z,95032.34
2022-08-26T04:09:52.720Z,95034.41
2022-08-26T04:10:52.715Z,95034.13
2022-08-26T04:11:52.701Z,95035.44
2022-08-26T04:12:52.699Z,95034.48
2022-08-26T04:13:52.670Z,95036.05
2022-08-26T04:14:52.667Z,95034.06
2022-08-26T04:15:52.793Z,95033.92
2022-08-26T04:16:52.664Z,95033.75
2022-08-26T04:17:52.632Z,95033.92
2022-08-26T04:18:52.631Z,95033.92
2022-08-26T04:19:52.621Z,95032.38
2022-08-26T04:20:52.611Z,95029.22
2022-08-26T04:21:52.632Z,95034.37
2022-08-26T04:22:52.592Z,95029.12
2022-08-26T04:23:52.582Z,95032.86
2022-08-26T04:24:52.579Z,95028.74
2022-08-26T04:25:52.577Z,95032.41
2022-08-26T04:26:52.584Z,95031.80
2022-08-26T04:27:52.568Z,95034.41
2022-08-26T04:28:52.556Z,95026.80
2022-08-26T04:29:55.314Z,95032.98
2022-08-26T04:30:52.582Z,95032.26
2022-08-26T04:31:55.641Z,95028.80
2022-08-26T04:32:52.506Z,95031.54
2022-08-26T04:33:52.507Z,95029.14
2022-08-26T04:34:52.487Z,95034.36
2022-08-26T04:35:52.491Z,95034.19
2022-08-26T04:36:52.481Z,95034.40
2022-08-26T04:37:52.487Z,95035.73
2022-08-26T04:38:52.465Z,95034.46
2022-08-26T04:39:52.700Z,95036.69
2022-08-26T04:40:52.430Z,95033.16
2022-08-26T04:41:52.419Z,95031.95
2022-08-26T04:42:52.434Z,95030.52
2022-08-26T04:43:52.404Z,95026.05
2022-08-26T04:44:52.415Z,95026.68
2022-08-26T04:45:52.416Z,95025.80
2022-08-26T04:46:52.475Z,95023.73
2022-08-26T04:47:52.372Z,95025.96
2022-08-26T04:48:52.362Z,95027.50
2022-08-26T04:49:52.353Z,95026.34
2022-08-26T04:50:52.364Z,95027.44
2022-08-26T04:51:52.363Z,95024.38
2022-08-26T04:52:52.348Z,95022.43
2022-08-26T04:53:52.328Z,95030.55
2022-08-26T04:54:52.314Z,95027.36
2022-08-26T04:55:52.472Z,95028.39
2022-08-26T04:56:52.309Z,95027.84
2022-08-26T04:57:52.307Z,95030.80
2022-08-26T04:58:52.298Z,95032.34
2022-08-26T04:59:52.281Z,95029.84
2022-08-26T05:00:52.267Z,95034.64
2022-08-26T05:01:52.348Z,95031.28
2022-08-26T05:02:52.249Z,95031.80
2022-08-26T05:03:52.299Z,95034.33
2022-08-26T05:04:52.242Z,95033.54
2022-08-26T05:05:52.218Z,95037.20
2022-08-26T05:06:53.423Z,95034.40
2022-08-26T05:07:52.214Z,95039.00
2022-08-26T05:08:52.204Z,95035.37
2022-08-26T05:09:52.213Z,95031.28
2022-08-26T05:10:52.186Z,95036.36
2022-08-26T05:11:52.509Z,95036.88
2022-08-26T05:12:52.160Z,95034.71
2022-08-26T05:13:52.143Z,95036.05
2022-08-26T05:14:52.143Z,95034.56
2022-08-26T05:15:52.162Z,95038.00
2022-08-26T05:16:52.137Z,95036.70
2022-08-26T05:17:52.121Z,95035.94
2022-08-26T05:18:52.105Z,95036.56
2022-08-26T05:19:52.093Z,95038.80
2022-08-26T05:20:54.570Z,95039.06
2022-08-26T05:21:52.110Z,95041.56
2022-08-26T05:22:52.080Z,95038.27
2022-08-26T05:23:52.057Z,95039.73
2022-08-26T05:24:52.047Z,95042.61
2022-08-26T05:25:54.770Z,95040.31
2022-08-26T05:26:52.051Z,95042.84
2022-08-26T05:27:52.053Z,95042.39
2022-08-26T05:28:54.948Z,95041.47
2022-08-26T05:29:54.544Z,95041.81
2022-08-26T05:30:52.021Z,95042.88
2022-08-26T05:31:52.007Z,95041.84
2022-08-26T05:32:55.252Z,95046.54
2022-08-26T05:33:51.990Z,95047.91
2022-08-26T05:34:51.971Z,95044.70
2022-08-26T05:35:51.951Z,95047.01
2022-08-26T05:36:51.952Z,95050.40
2022-08-26T05:37:51.932Z,95046.28
2022-08-26T05:38:51.932Z,95048.20
2022-08-26T05:39:52.031Z,95046.52
2022-08-26T05:40:52.797Z,95048.29
2022-08-26T05:41:51.918Z,95048.66
2022-08-26T05:42:51.909Z,95045.74
2022-08-26T05:43:51.885Z,95048.55
2022-08-26T05:44:55.563Z,95042.23
2022-08-26T05:45:52.059Z,95046.03
2022-08-26T05:46:51.991Z,95040.47
2022-08-26T05:47:51.869Z,95036.13
2022-08-26T05:48:51.860Z,95046.34
2022-08-26T05:49:51.916Z,95046.28
2022-08-26T05:50:51.827Z,95043.83
2022-08-26T05:51:51.829Z,95042.24
2022-08-26T05:52:51.818Z,95044.97
2022-08-26T05:53:54.895Z,95045.69
2022-08-26T05:54:51.798Z,95045.55
2022-08-26T05:55:51.795Z,95045.09
2022-08-26T05:56:51.804Z,95050.20
2022-08-26T05:57:51.802Z,95050.15
2022-08-26T05:58:51.762Z,95046.41
2022-08-26T05:59:51.754Z,95053.12
2022-08-26T06:00:51.742Z,95052.64
2022-08-26T06:01:51.792Z,95053.38
2022-08-26T06:02:51.753Z,95045.78
2022-08-26T06:03:51.762Z,95052.30
2022-08-26T06:04:51.856Z,95053.30
2022-08-26T06:05:51.716Z,95053.48
2022-08-26T06:06:51.707Z,95055.08
2022-08-26T06:07:51.697Z,95053.04
2022-08-26T06:08:51.688Z,95049.27
2022-08-26T06:09:51.677Z,95054.09
2022-08-26T06:10:51.982Z,95054.36
2022-08-26T06:11:51.655Z,95057.41
2022-08-26T06:12:51.650Z,95054.82
2022-08-26T06:13:51.636Z,95053.45
2022-08-26T06:14:51.637Z,95056.62
2022-08-26T06:15:51.701Z,95056.70
2022-08-26T06:16:51.607Z,95059.01
2022-08-26T06:17:51.611Z,95061.34
2022-08-26T06:18:51.596Z,95058.64
2022-08-26T06:19:51.601Z,95060.53
2022-08-26T06:20:56.954Z,95063.02
2022-08-26T06:21:54.672Z,95055.77
2022-08-26T06:22:51.558Z,95059.55
2022-08-26T06:23:51.551Z,95065.89
2022-08-26T06:24:51.554Z,95060.02
2022-08-26T06:25:51.531Z,95067.54
2022-08-26T06:26:51.537Z,95064.00
2022-08-26T06:27:51.536Z,95071.05
2022-08-26T06:28:51.503Z,95072.16
2022-08-26T06:29:51.516Z,95067.98
2022-08-26T06:30:51.530Z,95073.52
2022-08-26T06:31:51.498Z,95073.44
2022-08-26T06:32:51.473Z,95073.20
2022-08-26T06:33:51.497Z,95074.45
2022-08-26T06:34:51.476Z,95073.81
2022-08-26T06:35:51.454Z,95080.39
2022-08-26T06:36:53.115Z,95081.19
2022-08-26T06:37:51.443Z,95081.78
2022-08-26T06:38:51.430Z,95080.92
2022-08-26T06:39:51.493Z,95078.47
2022-08-26T06:40:51.406Z,95083.67
2022-08-26T06:41:51.397Z,95079.22
2022-08-26T06:42:51.401Z,95078.65
2022-08-26T06:43:51.391Z,95076.78
2022-08-26T06:44:51.369Z,95081.30
2022-08-26T06:45:51.391Z,95077.17
2022-08-26T06:46:51.525Z,95079.02
2022-08-26T06:47:51.365Z,95080.78
2022-08-26T06:48:51.330Z,95082.52
2022-08-26T06:49:51.345Z,95079.91
2022-08-26T06:50:51.334Z,95079.00
2022-08-26T06:51:51.343Z,95078.80
2022-08-26T06:52:51.315Z,95078.25
2022-08-26T06:53:51.306Z,95079.16
2022-08-26T06:54:51.296Z,95073.17
2022-08-26T06:55:51.876Z,95073.98
2022-08-26T06:56:51.263Z,95072.59
2022-08-26T06:57:51.274Z,95073.67
2022-08-26T06:58:51.265Z,95073.30
2022-08-26T06:59:51.348Z,95071.73
2022-08-26T07:00:51.235Z,95070.24
2022-08-26T07:01:51.283Z,95072.07
2022-08-26T07:02:51.239Z,95079.27
2022-08-26T07:03:51.226Z,95080.82
2022-08-26T07:04:51.350Z,95079.81
2022-08-26T07:05:51.211Z,95075.59
2022-08-26T07:06:52.617Z,95075.77
2022-08-26T07:07:51.192Z,95078.41
2022-08-26T07:08:51.181Z,95080.98
2022-08-26T07:09:52.476Z,95067.02
2022-08-26T07:10:51.178Z,95067.36
2022-08-26T07:11:51.150Z,95064.77
2022-08-26T07:12:51.130Z,95067.55
2022-08-26T07:13:51.131Z,95062.27
2022-08-26T07:14:51.111Z,95070.81
2022-08-26T07:15:51.158Z,95068.52
2022-08-26T07:16:51.114Z,95068.31
2022-08-26T07:17:51.112Z,95070.55
2022-08-26T07:18:51.082Z,95074.59
2022-08-26T07:19:51.073Z,95075.58
2022-08-26T07:20:51.064Z,95075.74
2022-08-26T07:21:51.073Z,95075.02
2022-08-26T07:22:51.058Z,95083.11
2022-08-26T07:23:51.058Z,95081.09
2022-08-26T07:24:51.039Z,95084.02
2022-08-26T07:25:51.026Z,95083.80
2022-08-26T07:26:51.016Z,95088.34
2022-08-26T07:27:54.461Z,95085.44
2022-08-26T07:28:50.998Z,95092.12
2022-08-26T07:29:50.997Z,95085.25
2022-08-26T07:30:51.042Z,95089.58
2022-08-26T07:31:50.978Z,95091.05
2022-08-26T07:32:50.973Z,95089.96
2022-08-26T07:33:50.982Z,95092.56
2022-08-26T07:34:50.949Z,95089.58
2022-08-26T07:35:50.940Z,95087.48
2022-08-26T07:36:50.943Z,95082.89
2022-08-26T07:37:55.086Z,95088.80
2022-08-26T07:38:50.924Z,95086.02
2022-08-26T07:39:51.009Z,95087.20
2022-08-26T07:40:50.892Z,95084.35
2022-08-26T07:41:50.892Z,95087.35
2022-08-26T07:42:50.886Z,95086.51
2022-08-26T07:43:50.873Z,95092.14
2022-08-26T07:44:50.858Z,95084.16
2022-08-26T07:45:50.930Z,95092.52
2022-08-26T07:46:52.308Z,95092.69
2022-08-26T07:47:50.850Z,95093.31
2022-08-26T07:48:50.839Z,95086.69
2022-08-26T07:49:52.696Z,95086.70
2022-08-26T07:50:50.911Z,95086.97
2022-08-26T07:51:50.818Z,95088.47
2022-08-26T07:52:50.807Z,95091.56
2022-08-26T07:53:52.847Z,95090.89
2022-08-26T07:54:50.770Z,95094.30
2022-08-26T07:55:50.770Z,95091.16
2022-08-26T07:56:50.772Z,95098.61
2022-08-26T07:57:50.773Z,95084.50
2022-08-26T07:58:51.546Z,95087.19
2022-08-26T07:59:50.751Z,95084.80
2022-08-26T08:00:50.734Z,95083.58
2022-08-26T08:01:50.780Z,95087.33
2022-08-26T08:02:50.723Z,95082.92
2022-08-26T08:03:50.721Z,95086.05
2022-08-26T08:04:50.762Z,95080.89
2022-08-26T08:05:50.683Z,95081.52
2022-08-26T08:06:50.686Z,95082.14
2022-08-26T08:07:53.572Z,95078.62
2022-08-26T08:08:50.841Z,95078.62
2022-08-26T08:09:50.678Z,95086.27
2022-08-26T08:10:50.648Z,95081.67
2022-08-26T08:11:51.286Z,95081.34
2022-08-26T08:12:50.621Z,95076.53
2022-08-26T08:13:56.112Z,95084.05
2022-08-26T08:14:50.605Z,95082.10
2022-08-26T08:15:50.607Z,95086.30
2022-08-26T08:16:51.260Z,95086.41
2022-08-26T08:17:50.621Z,95085.93
2022-08-26T08:18:50.568Z,95084.14
2022-08-26T08:19:50.579Z,95083.46
2022-08-26T08:20:59.248Z,95082.10
2022-08-26T08:21:50.582Z,95076.93
2022-08-26T08:22:50.530Z,95082.28
2022-08-26T08:23:50.531Z,95082.38
2022-08-26T08:24:53.081Z,95075.53
2022-08-26T08:25:50.525Z,95079.36
2022-08-26T08:26:50.512Z,95079.32
2022-08-26T08:27:50.512Z,95079.48
2022-08-26T08:28:50.492Z,95081.32
2022-08-26T08:29:50.496Z,95084.73
2022-08-26T08:30:50.564Z,95078.88
2022-08-26T08:31:57.025Z,95076.65
2022-08-26T08:32:50.455Z,95078.92
2022-08-26T08:33:50.466Z,95078.42
2022-08-26T08:34:50.436Z,95077.94
2022-08-26T08:35:50.439Z,95079.16
2022-08-26T08:36:50.418Z,95075.72
2022-08-26T08:37:50.407Z,95078.08
2022-08-26T08:38:50.410Z,95074.19
2022-08-26T08:39:50.481Z,95073.33
2022-08-26T08:40:50.379Z,95070.49
2022-08-26T08:41:50.391Z,95073.94
2022-08-26T08:42:50.359Z,95069.78
2022-08-26T08:43:50.373Z,95069.35
2022-08-26T08:44:52.374Z,95070.84
2022-08-26T08:45:50.390Z,95071.04
2022-08-26T08:46:50.332Z,95077.30
2022-08-26T08:47:50.334Z,95074.47
2022-08-26T08:48:50.312Z,95078.20
2022-08-26T08:49:50.324Z,95075.33
2022-08-26T08:50:50.293Z,95072.84
2022-08-26T08:51:50.312Z,95079.61
2022-08-26T08:52:50.283Z,95078.23
2022-08-26T08:53:50.290Z,95080.83
2022-08-26T08:54:50.268Z,95077.98
2022-08-26T08:55:50.268Z,95075.47
2022-08-26T08:56:50.247Z,95076.86
2022-08-26T08:57:50.278Z,95071.07
2022-08-26T08:58:50.226Z,95068.19
2022-08-26T08:59:50.227Z,95071.77
2022-08-26T09:00:50.220Z,95072.36
2022-08-26T09:01:52.530Z,95068.11
2022-08-26T09:02:50.211Z,95065.68
2022-08-26T09:03:50.222Z,95071.84
2022-08-26T09:04:50.179Z,95065.70
2022-08-26T09:05:50.170Z,95068.39
2022-08-26T09:06:50.205Z,95069.23
2022-08-26T09:07:50.174Z,95067.41
2022-08-26T09:08:50.485Z,95068.69
2022-08-26T09:09:50.255Z,95065.94
2022-08-26T09:10:50.132Z,95057.59
2022-08-26T09:11:50.135Z,95064.03
2022-08-26T09:12:50.114Z,95059.93
2022-08-26T09:13:50.122Z,95058.98
2022-08-26T09:14:51.067Z,95057.60
2022-08-26T09:15:50.105Z,95057.77
2022-08-26T09:16:50.114Z,95058.58
2022-08-26T09:17:50.077Z,95053.37
2022-08-26T09:18:50.065Z,95058.48
2022-08-26T09:19:50.080Z,95059.78
2022-08-26T09:20:50.054Z,95064.23
2022-08-26T09:21:53.480Z,95059.77
2022-08-26T09:22:50.039Z,95064.45
2022-08-26T09:23:50.041Z,95066.27
2022-08-26T09:24:50.032Z,95063.16
2022-08-26T09:25:50.082Z,95065.05
2022-08-26T09:26:50.015Z,95060.72
2022-08-26T09:27:50.437Z,95063.87
2022-08-26T09:28:49.990Z,95058.99
2022-08-26T09:29:50.416Z,95065.23
2022-08-26T09:30:50.073Z,95058.55
2022-08-26T09:31:49.984Z,95060.55
2022-08-26T09:32:55.889Z,95057.95
2022-08-26T09:33:49.974Z,95061.25
2022-08-26T09:34:49.944Z,95063.66
2022-08-26T09:35:49.934Z,95068.79
2022-08-26T09:36:49.925Z,95060.73
2022-08-26T09:38:49.905Z,95065.66
2022-08-26T09:39:49.977Z,95065.88
2022-08-26T09:40:49.895Z,95056.58
2022-08-26T09:41:49.900Z,95052.67
2022-08-26T09:42:49.888Z,95049.62
2022-08-26T09:43:49.882Z,95047.62
2022-08-26T09:44:49.871Z,95053.61
2022-08-26T09:45:50.851Z,95051.00
2022-08-26T09:46:49.842Z,95045.62
2022-08-26T09:47:49.840Z,95049.53
2022-08-26T09:48:51.782Z,95044.15
2022-08-26T09:49:49.834Z,95042.42
2022-08-26T09:50:49.830Z,95041.90
2022-08-26T09:51:50.068Z,95040.94
2022-08-26T09:52:49.791Z,95041.99
2022-08-26T09:53:49.798Z,95041.97
2022-08-26T09:54:49.786Z,95040.39
2022-08-26T09:55:49.786Z,95032.41
2022-08-26T09:56:49.763Z,95038.28
2022-08-26T09:57:49.773Z,95039.33
2022-08-26T09:58:49.757Z,95033.77
2022-08-26T09:59:49.755Z,95036.81
2022-08-26T10:00:49.768Z,95038.62
2022-08-26T10:01:49.899Z,95038.89
2022-08-26T10:02:50.137Z,95039.67
2022-08-26T10:03:49.830Z,95033.59
2022-08-26T10:04:49.710Z,95035.41
2022-08-26T10:05:49.704Z,95033.77
2022-08-26T10:06:49.692Z,95030.98
2022-08-26T10:07:49.679Z,95031.01
2022-08-26T10:08:49.660Z,95033.09
2022-08-26T10:09:49.694Z,95031.36
2022-08-26T10:10:53.100Z,95029.09
2022-08-26T10:11:49.642Z,95027.70
2022-08-26T10:12:49.645Z,95027.19
2022-08-26T10:13:49.621Z,95022.84
2022-08-26T10:14:49.640Z,95026.92
2022-08-26T10:15:50.839Z,95026.83
2022-08-26T10:16:49.685Z,95027.09
2022-08-26T10:17:49.604Z,95024.66
2022-08-26T10:18:49.598Z,95028.57
2022-08-26T10:19:56.625Z,95020.41
2022-08-26T10:20:49.589Z,95019.20
2022-08-26T10:21:49.588Z,95020.73
2022-08-26T10:22:49.569Z,95018.48
2022-08-26T10:23:49.559Z,95017.62
2022-08-26T10:24:51.939Z,95014.92
2022-08-26T10:25:49.528Z,95013.28
2022-08-26T10:26:49.539Z,95010.88
2022-08-26T10:27:53.439Z,95009.80
2022-08-26T10:28:49.522Z,95008.77
2022-08-26T10:29:49.489Z,95005.30
2022-08-26T10:30:49.491Z,95008.25
2022-08-26T10:31:51.414Z,95007.70
2022-08-26T10:32:49.480Z,95003.36
2022-08-26T10:33:49.484Z,95003.55
2022-08-26T10:34:49.461Z,95002.30
2022-08-26T10:35:49.442Z,95000.83
2022-08-26T10:37:10.573Z,94996.38
2022-08-26T10:37:49.430Z,94998.03
2022-08-26T10:38:49.422Z,95001.73
2022-08-26T10:39:49.425Z,94994.53
2022-08-26T10:40:49.473Z,94999.62
2022-08-26T10:41:49.395Z,95000.33
2022-08-26T10:42:49.425Z,95001.72
2022-08-26T10:43:49.375Z,95003.45
2022-08-26T10:44:49.376Z,94993.73
2022-08-26T10:45:49.403Z,94994.95
2022-08-26T10:46:49.370Z,94997.55
2022-08-26T10:47:49.347Z,94989.39
2022-08-26T10:48:49.337Z,94988.44
2022-08-26T10:49:49.343Z,94985.48
2022-08-26T10:50:49.329Z,94988.88
2022-08-26T10:51:49.339Z,94986.59
2022-08-26T10:52:49.323Z,94991.53
2022-08-26T10:53:51.549Z,94985.98
2022-08-26T10:54:49.292Z,94983.38
2022-08-26T10:55:49.283Z,94982.77
2022-08-26T10:56:49.286Z,94979.09
2022-08-26T10:57:49.296Z,94977.00
2022-08-26T10:58:49.262Z,94978.74
2022-08-26T10:59:49.256Z,94975.59
2022-08-26T11:00:49.348Z,94977.33
2022-08-26T11:01:51.034Z,94971.51
2022-08-26T11:02:49.228Z,94967.08
2022-08-26T11:03:49.262Z,94968.44
2022-08-26T11:04:49.236Z,94966.61
2022-08-26T11:05:49.197Z,94970.05
2022-08-26T11:06:49.197Z,94965.19
2022-08-26T11:07:49.198Z,94964.14
2022-08-26T11:08:49.190Z,94971.18
2022-08-26T11:09:49.692Z,94967.19
2022-08-26T11:10:49.167Z,94967.24
2022-08-26T11:11:49.154Z,94963.16
2022-08-26T11:12:49.589Z,94968.62
2022-08-26T11:13:49.138Z,94966.02
2022-08-26T11:14:58.882Z,94967.81
2022-08-26T11:15:49.142Z,94958.98
2022-08-26T11:16:49.170Z,94965.06
2022-08-26T11:17:49.116Z,94961.85
2022-08-26T11:18:51.317Z,94957.77
2022-08-26T11:20:00.700Z,94952.91
2022-08-26T11:20:49.083Z,94959.45
2022-08-26T11:21:50.621Z,94952.77
2022-08-26T11:22:49.064Z,94954.50
2022-08-26T11:23:50.193Z,94955.38
2022-08-26T11:24:49.059Z,94947.55
2022-08-26T11:25:49.036Z,94957.80
2022-08-26T11:26:56.388Z,94951.78
2022-08-26T11:27:49.060Z,94953.69
2022-08-26T11:28:49.017Z,94953.42
2022-08-26T11:29:49.008Z,94949.43
2022-08-26T11:30:49.006Z,94952.70
2022-08-26T11:31:49.062Z,94953.22
2022-08-26T11:32:48.989Z,94949.73
2022-08-26T11:33:48.994Z,94950.05
2022-08-26T11:34:48.984Z,94947.62
2022-08-26T11:35:48.961Z,94947.97
2022-08-26T11:36:48.965Z,94950.62
2022-08-26T11:37:48.952Z,94945.15
2022-08-26T11:38:48.947Z,94947.75
2022-08-26T11:39:54.056Z,94948.33
2022-08-26T11:40:48.924Z,94947.20
2022-08-26T11:41:48.926Z,94944.42
2022-08-26T11:42:48.921Z,94945.28
2022-08-26T11:43:48.894Z,94938.16
2022-08-26T11:44:49.634Z,94937.12
2022-08-26T11:45:48.930Z,94938.47